sensor_id;sensor_type;location;lat;lon;timestamp;P1;durP1;ratioP1;P2;durP2;ratioP2
9689;SDS011;4884;42.614;23.340;2022-12-18T00:00:42;7.30;;;6.57;;
9689;SDS011;4884;42.614;23.340;2022-12-18T00:03:07;9.53;;;7.80;;
9689;SDS011;4884;42.614;23.340;2022-12-18T00:05:33;6.90;;;6.07;;
9689;SDS011;4884;42.614;23.340;2022-12-18T00:07:58;7.50;;;6.07;;
9689;SDS011;4884;42.614;23.340;2022-12-18T00:10:23;7.47;;;6.07;;
9689;SDS011;4884;42.614;23.340;2022-12-18T00:12:49;7.17;;;6.17;;
9689;SDS011;4884;42.614;23.340;2022-12-18T00:15:14;6.87;;;6.17;;
9689;SDS011;4884;42.614;23.340;2022-12-18T00:17:40;8.77;;;7.07;;
9689;SDS011;4884;42.614;23.340;2022-12-18T00:20:05;8.43;;;7.00;;
9689;SDS011;4884;42.614;23.340;2022-12-18T00:22:31;9.47;;;7.90;;
9689;SDS011;4884;42.614;23.340;2022-12-18T00:24:56;9.87;;;7.93;;
9689;SDS011;4884;42.614;23.340;2022-12-18T00:27:22;9.67;;;7.83;;
9689;SDS011;4884;42.614;23.340;2022-12-18T00:29:47;12.07;;;7.63;;
9689;SDS011;4884;42.614;23.340;2022-12-18T00:32:13;9.50;;;8.03;;
9689;SDS011;4884;42.614;23.340;2022-12-18T00:34:38;14.03;;;8.63;;
9689;SDS011;4884;42.614;23.340;2022-12-18T00:37:04;7.77;;;7.07;;
9689;SDS011;4884;42.614;23.340;2022-12-18T00:39:29;7.57;;;6.77;;
9689;SDS011;4884;42.614;23.340;2022-12-18T00:41:54;9.97;;;8.40;;
9689;SDS011;4884;42.614;23.340;2022-12-18T00:44:38;9.67;;;6.97;;
9689;SDS011;4884;42.614;23.340;2022-12-18T00:47:04;9.00;;;7.20;;
9689;SDS011;4884;42.614;23.340;2022-12-18T00:49:29;10.23;;;8.47;;
9689;SDS011;4884;42.614;23.340;2022-12-18T00:51:54;9.67;;;7.63;;
9689;SDS011;4884;42.614;23.340;2022-12-18T00:54:20;11.97;;;7.67;;
9689;SDS011;4884;42.614;23.340;2022-12-18T00:56:45;8.73;;;7.27;;
9689;SDS011;4884;42.614;23.340;2022-12-18T00:59:10;9.30;;;7.80;;
9689;SDS011;4884;42.614;23.340;2022-12-18T01:01:36;10.53;;;8.33;;
9689;SDS011;4884;42.614;23.340;2022-12-18T01:04:01;8.17;;;6.63;;
9689;SDS011;4884;42.614;23.340;2022-12-18T01:06:27;8.50;;;6.63;;
9689;SDS011;4884;42.614;23.340;2022-12-18T01:08:53;7.70;;;6.87;;
9689;SDS011;4884;42.614;23.340;2022-12-18T01:11:19;9.57;;;7.27;;
9689;SDS011;4884;42.614;23.340;2022-12-18T01:13:45;9.27;;;7.87;;
9689;SDS011;4884;42.614;23.340;2022-12-18T01:16:11;9.43;;;7.43;;
9689;SDS011;4884;42.614;23.340;2022-12-18T01:18:37;10.20;;;8.20;;
9689;SDS011;4884;42.614;23.340;2022-12-18T01:21:14;9.53;;;8.00;;
9689;SDS011;4884;42.614;23.340;2022-12-18T01:23:41;10.33;;;8.33;;
9689;SDS011;4884;42.614;23.340;2022-12-18T01:26:07;9.73;;;8.33;;
9689;SDS011;4884;42.614;23.340;2022-12-18T01:28:33;10.87;;;8.00;;
9689;SDS011;4884;42.614;23.340;2022-12-18T01:31:08;11.27;;;8.57;;
9689;SDS011;4884;42.614;23.340;2022-12-18T01:33:38;11.30;;;8.67;;
9689;SDS011;4884;42.614;23.340;2022-12-18T01:36:03;9.10;;;7.97;;
9689;SDS011;4884;42.614;23.340;2022-12-18T01:38:29;11.73;;;8.67;;
9689;SDS011;4884;42.614;23.340;2022-12-18T01:40:58;10.97;;;9.13;;
9689;SDS011;4884;42.614;23.340;2022-12-18T01:46:08;11.07;;;9.83;;
9689;SDS011;4884;42.614;23.340;2022-12-18T01:48:34;12.27;;;10.77;;
9689;SDS011;4884;42.614;23.340;2022-12-18T01:50:59;13.00;;;9.80;;
9689;SDS011;4884;42.614;23.340;2022-12-18T01:53:25;12.57;;;10.37;;
9689;SDS011;4884;42.614;23.340;2022-12-18T01:55:56;13.00;;;10.07;;
9689;SDS011;4884;42.614;23.340;2022-12-18T01:58:24;13.70;;;10.53;;
9689;SDS011;4884;42.614;23.340;2022-12-18T02:00:55;14.03;;;11.23;;
9689;SDS011;4884;42.614;23.340;2022-12-18T02:03:21;17.10;;;12.63;;
9689;SDS011;4884;42.614;23.340;2022-12-18T02:18:55;15.23;;;11.87;;
9689;SDS011;4884;42.614;23.340;2022-12-18T02:24:14;15.97;;;12.47;;
9689;SDS011;4884;42.614;23.340;2022-12-18T02:26:46;17.30;;;12.47;;
9689;SDS011;4884;42.614;23.340;2022-12-18T02:29:18;16.10;;;13.17;;
9689;SDS011;4884;42.614;23.340;2022-12-18T02:31:54;13.77;;;10.50;;
9689;SDS011;4884;42.614;23.340;2022-12-18T02:34:24;13.30;;;11.20;;
9689;SDS011;4884;42.614;23.340;2022-12-18T02:36:53;14.43;;;11.87;;
9689;SDS011;4884;42.614;23.340;2022-12-18T02:39:20;16.53;;;12.07;;
9689;SDS011;4884;42.614;23.340;2022-12-18T02:41:46;15.17;;;11.33;;
9689;SDS011;4884;42.614;23.340;2022-12-18T02:44:13;17.27;;;11.27;;
9689;SDS011;4884;42.614;23.340;2022-12-18T02:51:44;14.67;;;11.30;;
9689;SDS011;4884;42.614;23.340;2022-12-18T02:54:20;13.73;;;10.17;;
9689;SDS011;4884;42.614;23.340;2022-12-18T02:59:49;16.93;;;11.40;;
9689;SDS011;4884;42.614;23.340;2022-12-18T03:02:30;12.90;;;10.57;;
9689;SDS011;4884;42.614;23.340;2022-12-18T03:05:14;15.77;;;11.50;;
9689;SDS011;4884;42.614;23.340;2022-12-18T03:07:50;18.13;;;11.97;;
9689;SDS011;4884;42.614;23.340;2022-12-18T03:10:29;14.10;;;11.00;;
9689;SDS011;4884;42.614;23.340;2022-12-18T03:13:02;14.10;;;10.57;;
9689;SDS011;4884;42.614;23.340;2022-12-18T03:16:03;14.77;;;11.30;;
9689;SDS011;4884;42.614;23.340;2022-12-18T03:18:23;14.30;;;10.23;;
9689;SDS011;4884;42.614;23.340;2022-12-18T03:20:51;13.03;;;10.43;;
9689;SDS011;4884;42.614;23.340;2022-12-18T03:23:20;12.77;;;10.57;;
9689;SDS011;4884;42.614;23.340;2022-12-18T03:25:47;14.70;;;10.87;;
9689;SDS011;4884;42.614;23.340;2022-12-18T03:28:16;12.60;;;9.83;;
9689;SDS011;4884;42.614;23.340;2022-12-18T03:30:45;12.10;;;8.80;;
9689;SDS011;4884;42.614;23.340;2022-12-18T03:35:59;13.67;;;9.70;;
9689;SDS011;4884;42.614;23.340;2022-12-18T03:38:26;14.10;;;10.73;;
9689;SDS011;4884;42.614;23.340;2022-12-18T03:46:08;11.57;;;9.20;;
9689;SDS011;4884;42.614;23.340;2022-12-18T03:48:48;11.17;;;8.17;;
9689;SDS011;4884;42.614;23.340;2022-12-18T03:51:25;8.60;;;7.23;;
9689;SDS011;4884;42.614;23.340;2022-12-18T03:54:00;9.73;;;7.33;;
9689;SDS011;4884;42.614;23.340;2022-12-18T03:56:31;10.33;;;7.77;;
9689;SDS011;4884;42.614;23.340;2022-12-18T03:58:59;9.70;;;7.60;;
9689;SDS011;4884;42.614;23.340;2022-12-18T04:01:28;7.70;;;6.70;;
9689;SDS011;4884;42.614;23.340;2022-12-18T04:03:56;10.87;;;8.27;;
9689;SDS011;4884;42.614;23.340;2022-12-18T04:06:24;7.97;;;6.60;;
9689;SDS011;4884;42.614;23.340;2022-12-18T04:08:50;10.17;;;8.23;;
9689;SDS011;4884;42.614;23.340;2022-12-18T04:11:15;9.87;;;7.43;;
9689;SDS011;4884;42.614;23.340;2022-12-18T04:13:42;10.17;;;7.20;;
9689;SDS011;4884;42.614;23.340;2022-12-18T04:16:07;9.30;;;6.93;;
9689;SDS011;4884;42.614;23.340;2022-12-18T04:18:34;8.90;;;6.70;;
9689;SDS011;4884;42.614;23.340;2022-12-18T04:21:00;7.87;;;5.97;;
9689;SDS011;4884;42.614;23.340;2022-12-18T04:23:26;10.83;;;6.90;;
9689;SDS011;4884;42.614;23.340;2022-12-18T04:25:51;8.50;;;6.43;;
9689;SDS011;4884;42.614;23.340;2022-12-18T04:28:17;6.97;;;5.60;;
9689;SDS011;4884;42.614;23.340;2022-12-18T04:30:42;9.20;;;6.90;;
9689;SDS011;4884;42.614;23.340;2022-12-18T04:33:08;8.33;;;6.40;;
9689;SDS011;4884;42.614;23.340;2022-12-18T04:35:35;12.17;;;7.93;;
9689;SDS011;4884;42.614;23.340;2022-12-18T04:38:00;11.97;;;7.10;;
9689;SDS011;4884;42.614;23.340;2022-12-18T04:40:25;9.50;;;6.97;;
9689;SDS011;4884;42.614;23.340;2022-12-18T04:42:51;7.90;;;6.03;;
9689;SDS011;4884;42.614;23.340;2022-12-18T04:45:16;11.33;;;7.50;;
9689;SDS011;4884;42.614;23.340;2022-12-18T04:47:41;10.97;;;6.23;;
9689;SDS011;4884;42.614;23.340;2022-12-18T04:50:07;13.37;;;8.57;;
9689;SDS011;4884;42.614;23.340;2022-12-18T04:52:32;10.13;;;7.57;;
9689;SDS011;4884;42.614;23.340;2022-12-18T04:54:58;9.70;;;7.00;;
9689;SDS011;4884;42.614;23.340;2022-12-18T04:57:23;11.23;;;7.37;;
9689;SDS011;4884;42.614;23.340;2022-12-18T04:59:48;9.77;;;6.70;;
9689;SDS011;4884;42.614;23.340;2022-12-18T05:02:14;11.50;;;7.33;;
9689;SDS011;4884;42.614;23.340;2022-12-18T05:04:39;9.70;;;7.40;;
9689;SDS011;4884;42.614;23.340;2022-12-18T05:07:05;11.07;;;7.10;;
9689;SDS011;4884;42.614;23.340;2022-12-18T05:09:30;11.77;;;7.47;;
9689;SDS011;4884;42.614;23.340;2022-12-18T05:11:55;12.07;;;7.87;;
9689;SDS011;4884;42.614;23.340;2022-12-18T05:14:21;13.37;;;8.57;;
9689;SDS011;4884;42.614;23.340;2022-12-18T05:16:46;11.00;;;7.70;;
9689;SDS011;4884;42.614;23.340;2022-12-18T05:19:12;10.73;;;7.90;;
9689;SDS011;4884;42.614;23.340;2022-12-18T05:21:37;12.60;;;7.53;;
9689;SDS011;4884;42.614;23.340;2022-12-18T05:24:03;10.80;;;7.20;;
9689;SDS011;4884;42.614;23.340;2022-12-18T05:26:28;11.20;;;7.60;;
9689;SDS011;4884;42.614;23.340;2022-12-18T05:28:54;8.67;;;7.77;;
9689;SDS011;4884;42.614;23.340;2022-12-18T05:31:19;10.27;;;8.07;;
9689;SDS011;4884;42.614;23.340;2022-12-18T05:33:44;11.83;;;8.53;;
9689;SDS011;4884;42.614;23.340;2022-12-18T05:36:10;10.27;;;7.17;;
9689;SDS011;4884;42.614;23.340;2022-12-18T05:38:37;13.40;;;8.40;;
9689;SDS011;4884;42.614;23.340;2022-12-18T05:41:03;13.07;;;7.50;;
9689;SDS011;4884;42.614;23.340;2022-12-18T05:43:29;8.93;;;7.40;;
9689;SDS011;4884;42.614;23.340;2022-12-18T05:45:54;17.87;;;10.97;;
9689;SDS011;4884;42.614;23.340;2022-12-18T05:48:20;11.03;;;9.13;;
9689;SDS011;4884;42.614;23.340;2022-12-18T05:50:47;12.13;;;8.07;;
9689;SDS011;4884;42.614;23.340;2022-12-18T05:53:17;9.80;;;7.03;;
9689;SDS011;4884;42.614;23.340;2022-12-18T05:55:44;9.80;;;7.37;;
9689;SDS011;4884;42.614;23.340;2022-12-18T05:58:11;10.10;;;7.37;;
9689;SDS011;4884;42.614;23.340;2022-12-18T06:00:37;10.10;;;7.40;;
9689;SDS011;4884;42.614;23.340;2022-12-18T06:03:10;12.83;;;8.80;;
9689;SDS011;4884;42.614;23.340;2022-12-18T06:05:41;13.50;;;10.10;;
9689;SDS011;4884;42.614;23.340;2022-12-18T06:08:08;17.87;;;10.97;;
9689;SDS011;4884;42.614;23.340;2022-12-18T06:10:34;16.67;;;12.13;;
9689;SDS011;4884;42.614;23.340;2022-12-18T06:13:00;17.40;;;11.57;;
9689;SDS011;4884;42.614;23.340;2022-12-18T06:15:25;16.00;;;10.90;;
9689;SDS011;4884;42.614;23.340;2022-12-18T06:17:51;16.63;;;11.37;;
9689;SDS011;4884;42.614;23.340;2022-12-18T06:20:16;13.23;;;10.20;;
9689;SDS011;4884;42.614;23.340;2022-12-18T06:22:41;18.63;;;12.30;;
9689;SDS011;4884;42.614;23.340;2022-12-18T06:25:07;14.77;;;10.50;;
9689;SDS011;4884;42.614;23.340;2022-12-18T06:27:32;18.60;;;11.10;;
9689;SDS011;4884;42.614;23.340;2022-12-18T06:29:58;12.60;;;9.53;;
9689;SDS011;4884;42.614;23.340;2022-12-18T06:32:24;15.07;;;10.10;;
9689;SDS011;4884;42.614;23.340;2022-12-18T06:34:49;12.47;;;9.47;;
9689;SDS011;4884;42.614;23.340;2022-12-18T06:37:15;17.30;;;10.50;;
9689;SDS011;4884;42.614;23.340;2022-12-18T06:39:40;13.83;;;9.90;;
9689;SDS011;4884;42.614;23.340;2022-12-18T06:42:05;12.50;;;8.23;;
9689;SDS011;4884;42.614;23.340;2022-12-18T06:44:31;13.00;;;9.43;;
9689;SDS011;4884;42.614;23.340;2022-12-18T06:46:56;15.77;;;10.27;;
9689;SDS011;4884;42.614;23.340;2022-12-18T06:49:21;14.00;;;10.43;;
9689;SDS011;4884;42.614;23.340;2022-12-18T06:51:47;12.27;;;8.63;;
9689;SDS011;4884;42.614;23.340;2022-12-18T06:54:12;10.17;;;9.03;;
9689;SDS011;4884;42.614;23.340;2022-12-18T06:56:37;14.43;;;9.67;;
9689;SDS011;4884;42.614;23.340;2022-12-18T06:59:03;12.67;;;9.63;;
9689;SDS011;4884;42.614;23.340;2022-12-18T07:01:28;15.33;;;10.87;;
9689;SDS011;4884;42.614;23.340;2022-12-18T07:03:54;11.80;;;9.10;;
9689;SDS011;4884;42.614;23.340;2022-12-18T07:06:21;15.90;;;10.47;;
9689;SDS011;4884;42.614;23.340;2022-12-18T07:08:48;14.63;;;9.33;;
9689;SDS011;4884;42.614;23.340;2022-12-18T07:11:14;15.70;;;9.40;;
9689;SDS011;4884;42.614;23.340;2022-12-18T07:13:40;14.33;;;9.83;;
9689;SDS011;4884;42.614;23.340;2022-12-18T07:18:35;10.80;;;8.00;;
9689;SDS011;4884;42.614;23.340;2022-12-18T07:21:04;13.37;;;8.73;;
9689;SDS011;4884;42.614;23.340;2022-12-18T07:23:31;14.23;;;9.27;;
9689;SDS011;4884;42.614;23.340;2022-12-18T07:26:00;12.03;;;8.33;;
9689;SDS011;4884;42.614;23.340;2022-12-18T07:28:35;13.50;;;9.17;;
9689;SDS011;4884;42.614;23.340;2022-12-18T07:31:08;14.53;;;9.17;;
9689;SDS011;4884;42.614;23.340;2022-12-18T07:33:38;13.80;;;9.03;;
9689;SDS011;4884;42.614;23.340;2022-12-18T07:36:04;14.20;;;9.73;;
9689;SDS011;4884;42.614;23.340;2022-12-18T07:38:30;13.30;;;9.13;;
9689;SDS011;4884;42.614;23.340;2022-12-18T07:41:00;17.37;;;10.63;;
9689;SDS011;4884;42.614;23.340;2022-12-18T07:43:29;14.03;;;9.43;;
9689;SDS011;4884;42.614;23.340;2022-12-18T07:45:55;15.43;;;10.07;;
9689;SDS011;4884;42.614;23.340;2022-12-18T07:48:20;133.40;;;57.03;;
9689;SDS011;4884;42.614;23.340;2022-12-18T07:50:45;18.10;;;13.57;;
9689;SDS011;4884;42.614;23.340;2022-12-18T07:53:11;17.10;;;14.13;;
9689;SDS011;4884;42.614;23.340;2022-12-18T07:55:36;14.87;;;11.27;;
9689;SDS011;4884;42.614;23.340;2022-12-18T07:58:02;19.33;;;14.90;;
9689;SDS011;4884;42.614;23.340;2022-12-18T08:00:28;18.07;;;15.40;;
9689;SDS011;4884;42.614;23.340;2022-12-18T08:02:54;19.63;;;16.03;;
9689;SDS011;4884;42.614;23.340;2022-12-18T08:05:19;26.57;;;19.97;;
9689;SDS011;4884;42.614;23.340;2022-12-18T08:07:45;12.27;;;9.83;;
9689;SDS011;4884;42.614;23.340;2022-12-18T08:10:11;15.60;;;12.47;;
9689;SDS011;4884;42.614;23.340;2022-12-18T08:12:36;15.80;;;13.43;;
9689;SDS011;4884;42.614;23.340;2022-12-18T08:15:02;18.70;;;12.93;;
9689;SDS011;4884;42.614;23.340;2022-12-18T08:17:27;17.70;;;12.13;;
9689;SDS011;4884;42.614;23.340;2022-12-18T08:19:52;15.90;;;12.53;;
9689;SDS011;4884;42.614;23.340;2022-12-18T08:22:18;17.07;;;12.97;;
9689;SDS011;4884;42.614;23.340;2022-12-18T08:24:43;24.73;;;20.30;;
9689;SDS011;4884;42.614;23.340;2022-12-18T08:27:09;18.50;;;14.80;;
9689;SDS011;4884;42.614;23.340;2022-12-18T08:29:34;20.30;;;13.80;;
9689;SDS011;4884;42.614;23.340;2022-12-18T08:31:59;39.20;;;33.53;;
9689;SDS011;4884;42.614;23.340;2022-12-18T08:34:25;21.00;;;14.57;;
9689;SDS011;4884;42.614;23.340;2022-12-18T08:36:50;32.00;;;27.50;;
9689;SDS011;4884;42.614;23.340;2022-12-18T08:39:15;27.43;;;20.57;;
9689;SDS011;4884;42.614;23.340;2022-12-18T08:41:41;22.87;;;17.43;;
9689;SDS011;4884;42.614;23.340;2022-12-18T08:44:09;29.03;;;24.63;;
9689;SDS011;4884;42.614;23.340;2022-12-18T08:46:53;25.53;;;18.93;;
9689;SDS011;4884;42.614;23.340;2022-12-18T08:49:18;23.20;;;17.50;;
9689;SDS011;4884;42.614;23.340;2022-12-18T08:51:44;28.17;;;22.77;;
9689;SDS011;4884;42.614;23.340;2022-12-18T08:54:11;28.97;;;20.30;;
9689;SDS011;4884;42.614;23.340;2022-12-18T08:56:37;35.50;;;25.00;;
9689;SDS011;4884;42.614;23.340;2022-12-18T08:59:02;34.00;;;25.77;;
9689;SDS011;4884;42.614;23.340;2022-12-18T09:01:29;33.60;;;28.77;;
9689;SDS011;4884;42.614;23.340;2022-12-18T09:03:54;25.80;;;16.77;;
9689;SDS011;4884;42.614;23.340;2022-12-18T09:06:20;28.87;;;21.53;;
9689;SDS011;4884;42.614;23.340;2022-12-18T09:08:46;27.47;;;20.73;;
9689;SDS011;4884;42.614;23.340;2022-12-18T09:11:18;41.07;;;32.33;;
9689;SDS011;4884;42.614;23.340;2022-12-18T09:13:45;31.63;;;21.60;;
9689;SDS011;4884;42.614;23.340;2022-12-18T09:16:11;27.17;;;21.50;;
9689;SDS011;4884;42.614;23.340;2022-12-18T09:18:36;31.40;;;23.50;;
9689;SDS011;4884;42.614;23.340;2022-12-18T09:21:09;33.03;;;22.63;;
9689;SDS011;4884;42.614;23.340;2022-12-18T09:23:35;48.50;;;37.10;;
9689;SDS011;4884;42.614;23.340;2022-12-18T09:26:00;31.77;;;23.27;;
9689;SDS011;4884;42.614;23.340;2022-12-18T09:28:26;26.77;;;20.30;;
9689;SDS011;4884;42.614;23.340;2022-12-18T09:30:52;31.87;;;20.37;;
9689;SDS011;4884;42.614;23.340;2022-12-18T09:33:17;32.10;;;21.43;;
9689;SDS011;4884;42.614;23.340;2022-12-18T09:35:43;34.30;;;22.90;;
9689;SDS011;4884;42.614;23.340;2022-12-18T09:38:11;38.90;;;25.53;;
9689;SDS011;4884;42.614;23.340;2022-12-18T09:40:51;40.27;;;27.13;;
9689;SDS011;4884;42.614;23.340;2022-12-18T09:43:19;36.87;;;26.10;;
9689;SDS011;4884;42.614;23.340;2022-12-18T09:45:49;39.43;;;28.57;;
9689;SDS011;4884;42.614;23.340;2022-12-18T09:48:19;31.03;;;22.83;;
9689;SDS011;4884;42.614;23.340;2022-12-18T09:50:47;37.00;;;21.77;;
9689;SDS011;4884;42.614;23.340;2022-12-18T09:53:20;36.83;;;23.80;;
9689;SDS011;4884;42.614;23.340;2022-12-18T09:55:53;35.70;;;22.23;;
9689;SDS011;4884;42.614;23.340;2022-12-18T09:58:36;36.07;;;24.73;;
9689;SDS011;4884;42.614;23.340;2022-12-18T10:01:09;41.83;;;32.67;;
9689;SDS011;4884;42.614;23.340;2022-12-18T10:03:36;42.67;;;36.03;;
9689;SDS011;4884;42.614;23.340;2022-12-18T10:06:02;44.60;;;34.30;;
9689;SDS011;4884;42.614;23.340;2022-12-18T10:08:39;33.97;;;24.03;;
9689;SDS011;4884;42.614;23.340;2022-12-18T10:14:19;25.97;;;15.83;;
9689;SDS011;4884;42.614;23.340;2022-12-18T10:17:11;26.40;;;15.53;;
9689;SDS011;4884;42.614;23.340;2022-12-18T10:19:44;32.73;;;22.03;;
9689;SDS011;4884;42.614;23.340;2022-12-18T10:27:48;24.50;;;17.50;;
9689;SDS011;4884;42.614;23.340;2022-12-18T10:30:19;25.30;;;18.70;;
9689;SDS011;4884;42.614;23.340;2022-12-18T10:32:46;26.10;;;18.07;;
9689;SDS011;4884;42.614;23.340;2022-12-18T10:35:29;29.97;;;20.57;;
9689;SDS011;4884;42.614;23.340;2022-12-18T10:38:04;30.87;;;19.63;;
9689;SDS011;4884;42.614;23.340;2022-12-18T10:41:00;29.63;;;19.57;;
9689;SDS011;4884;42.614;23.340;2022-12-18T10:51:16;31.03;;;18.50;;
9689;SDS011;4884;42.614;23.340;2022-12-18T10:53:50;25.17;;;16.50;;
9689;SDS011;4884;42.614;23.340;2022-12-18T10:56:19;32.50;;;17.37;;
9689;SDS011;4884;42.614;23.340;2022-12-18T10:58:45;34.73;;;21.23;;
9689;SDS011;4884;42.614;23.340;2022-12-18T11:01:21;30.37;;;20.07;;
9689;SDS011;4884;42.614;23.340;2022-12-18T11:06:19;28.00;;;17.17;;
9689;SDS011;4884;42.614;23.340;2022-12-18T11:09:05;24.97;;;15.67;;
9689;SDS011;4884;42.614;23.340;2022-12-18T11:11:48;29.13;;;16.10;;
9689;SDS011;4884;42.614;23.340;2022-12-18T11:14:18;23.77;;;16.23;;
9689;SDS011;4884;42.614;23.340;2022-12-18T11:16:46;24.57;;;15.50;;
9689;SDS011;4884;42.614;23.340;2022-12-18T11:21:58;20.33;;;12.77;;
9689;SDS011;4884;42.614;23.340;2022-12-18T11:24:27;19.47;;;13.57;;
9689;SDS011;4884;42.614;23.340;2022-12-18T11:26:57;22.37;;;12.73;;
9689;SDS011;4884;42.614;23.340;2022-12-18T11:29:27;20.53;;;13.03;;
9689;SDS011;4884;42.614;23.340;2022-12-18T11:34:47;20.57;;;12.13;;
9689;SDS011;4884;42.614;23.340;2022-12-18T11:37:15;18.40;;;11.50;;
9689;SDS011;4884;42.614;23.340;2022-12-18T11:39:55;21.40;;;12.20;;
9689;SDS011;4884;42.614;23.340;2022-12-18T11:50:51;17.93;;;11.80;;
9689;SDS011;4884;42.614;23.340;2022-12-18T11:53:17;19.13;;;12.07;;
9689;SDS011;4884;42.614;23.340;2022-12-18T11:56:04;20.50;;;12.73;;
9689;SDS011;4884;42.614;23.340;2022-12-18T11:58:50;22.53;;;12.43;;
9689;SDS011;4884;42.614;23.340;2022-12-18T12:04:27;19.23;;;11.33;;
9689;SDS011;4884;42.614;23.340;2022-12-18T12:09:31;16.87;;;10.30;;
9689;SDS011;4884;42.614;23.340;2022-12-18T12:12:09;18.67;;;12.07;;
9689;SDS011;4884;42.614;23.340;2022-12-18T12:26:10;33.53;;;16.87;;
9689;SDS011;4884;42.614;23.340;2022-12-18T12:36:47;30.17;;;17.00;;
9689;SDS011;4884;42.614;23.340;2022-12-18T12:39:34;25.27;;;16.70;;
9689;SDS011;4884;42.614;23.340;2022-12-18T12:42:03;23.57;;;14.77;;
9689;SDS011;4884;42.614;23.340;2022-12-18T12:44:49;28.53;;;18.57;;
9689;SDS011;4884;42.614;23.340;2022-12-18T12:47:40;64.00;;;40.20;;
9689;SDS011;4884;42.614;23.340;2022-12-18T12:50:05;43.93;;;29.03;;
9689;SDS011;4884;42.614;23.340;2022-12-18T12:52:34;28.70;;;18.07;;
9689;SDS011;4884;42.614;23.340;2022-12-18T12:55:03;30.97;;;20.50;;
9689;SDS011;4884;42.614;23.340;2022-12-18T12:57:46;20.23;;;13.67;;
9689;SDS011;4884;42.614;23.340;2022-12-18T13:00:17;27.30;;;17.17;;
9689;SDS011;4884;42.614;23.340;2022-12-18T13:02:47;42.47;;;20.90;;
9689;SDS011;4884;42.614;23.340;2022-12-18T13:08:11;26.00;;;16.80;;
9689;SDS011;4884;42.614;23.340;2022-12-18T13:10:47;22.80;;;15.93;;
9689;SDS011;4884;42.614;23.340;2022-12-18T13:13:13;26.83;;;16.47;;
9689;SDS011;4884;42.614;23.340;2022-12-18T13:18:11;24.40;;;16.43;;
9689;SDS011;4884;42.614;23.340;2022-12-18T13:20:50;25.47;;;16.20;;
9689;SDS011;4884;42.614;23.340;2022-12-18T13:25:54;24.53;;;15.90;;
9689;SDS011;4884;42.614;23.340;2022-12-18T13:30:59;24.63;;;15.43;;
9689;SDS011;4884;42.614;23.340;2022-12-18T13:39:11;28.60;;;15.93;;
9689;SDS011;4884;42.614;23.340;2022-12-18T13:41:43;24.83;;;16.43;;
9689;SDS011;4884;42.614;23.340;2022-12-18T13:44:13;22.73;;;15.33;;
9689;SDS011;4884;42.614;23.340;2022-12-18T13:46:45;25.77;;;16.67;;
9689;SDS011;4884;42.614;23.340;2022-12-18T13:51:38;25.87;;;16.87;;
9689;SDS011;4884;42.614;23.340;2022-12-18T13:54:10;31.43;;;18.13;;
9689;SDS011;4884;42.614;23.340;2022-12-18T13:56:42;27.50;;;17.20;;
9689;SDS011;4884;42.614;23.340;2022-12-18T14:01:55;30.53;;;18.03;;
9689;SDS011;4884;42.614;23.340;2022-12-18T14:06:49;35.37;;;20.70;;
9689;SDS011;4884;42.614;23.340;2022-12-18T14:09:17;36.03;;;22.53;;
9689;SDS011;4884;42.614;23.340;2022-12-18T14:11:48;27.37;;;18.03;;
9689;SDS011;4884;42.614;23.340;2022-12-18T14:14:15;34.53;;;21.60;;
9689;SDS011;4884;42.614;23.340;2022-12-18T14:16:41;32.80;;;19.27;;
9689;SDS011;4884;42.614;23.340;2022-12-18T14:19:12;32.93;;;20.93;;
9689;SDS011;4884;42.614;23.340;2022-12-18T14:21:39;33.13;;;21.23;;
9689;SDS011;4884;42.614;23.340;2022-12-18T14:26:33;31.10;;;22.17;;
9689;SDS011;4884;42.614;23.340;2022-12-18T14:29:00;30.77;;;21.13;;
9689;SDS011;4884;42.614;23.340;2022-12-18T14:31:35;29.67;;;18.90;;
9689;SDS011;4884;42.614;23.340;2022-12-18T14:34:01;34.13;;;20.57;;
9689;SDS011;4884;42.614;23.340;2022-12-18T14:36:28;28.90;;;20.27;;
9689;SDS011;4884;42.614;23.340;2022-12-18T14:38:57;30.67;;;19.30;;
9689;SDS011;4884;42.614;23.340;2022-12-18T14:41:23;34.97;;;22.20;;
9689;SDS011;4884;42.614;23.340;2022-12-18T14:43:50;34.53;;;20.20;;
9689;SDS011;4884;42.614;23.340;2022-12-18T14:48:57;30.07;;;20.30;;
9689;SDS011;4884;42.614;23.340;2022-12-18T14:51:28;27.60;;;19.10;;
9689;SDS011;4884;42.614;23.340;2022-12-18T14:53:55;29.63;;;19.60;;
9689;SDS011;4884;42.614;23.340;2022-12-18T14:56:25;29.57;;;19.80;;
9689;SDS011;4884;42.614;23.340;2022-12-18T14:58:53;31.90;;;19.57;;
9689;SDS011;4884;42.614;23.340;2022-12-18T15:01:25;29.77;;;19.60;;
9689;SDS011;4884;42.614;23.340;2022-12-18T15:03:52;27.00;;;17.17;;
9689;SDS011;4884;42.614;23.340;2022-12-18T15:06:23;30.23;;;18.87;;
9689;SDS011;4884;42.614;23.340;2022-12-18T15:08:55;28.90;;;17.70;;
9689;SDS011;4884;42.614;23.340;2022-12-18T15:11:27;23.93;;;16.23;;
9689;SDS011;4884;42.614;23.340;2022-12-18T15:14:21;30.60;;;21.30;;
9689;SDS011;4884;42.614;23.340;2022-12-18T15:16:54;26.57;;;18.30;;
9689;SDS011;4884;42.614;23.340;2022-12-18T15:19:21;36.20;;;19.30;;
9689;SDS011;4884;42.614;23.340;2022-12-18T15:21:47;33.07;;;24.87;;
9689;SDS011;4884;42.614;23.340;2022-12-18T15:24:24;32.17;;;21.23;;
9689;SDS011;4884;42.614;23.340;2022-12-18T15:26:52;35.57;;;23.70;;
9689;SDS011;4884;42.614;23.340;2022-12-18T15:29:21;29.87;;;20.00;;
9689;SDS011;4884;42.614;23.340;2022-12-18T15:32:10;29.57;;;20.07;;
9689;SDS011;4884;42.614;23.340;2022-12-18T15:34:43;36.17;;;23.67;;
9689;SDS011;4884;42.614;23.340;2022-12-18T15:37:08;32.83;;;20.53;;
9689;SDS011;4884;42.614;23.340;2022-12-18T15:39:33;34.13;;;21.83;;
9689;SDS011;4884;42.614;23.340;2022-12-18T15:42:00;26.17;;;19.77;;
9689;SDS011;4884;42.614;23.340;2022-12-18T15:44:45;34.10;;;21.70;;
9689;SDS011;4884;42.614;23.340;2022-12-18T15:47:11;26.63;;;18.63;;
9689;SDS011;4884;42.614;23.340;2022-12-18T15:49:38;35.63;;;23.10;;
9689;SDS011;4884;42.614;23.340;2022-12-18T15:52:03;31.27;;;22.70;;
9689;SDS011;4884;42.614;23.340;2022-12-18T15:54:29;25.40;;;19.17;;
9689;SDS011;4884;42.614;23.340;2022-12-18T15:57:13;33.13;;;25.10;;
9689;SDS011;4884;42.614;23.340;2022-12-18T15:59:54;56.03;;;42.37;;
9689;SDS011;4884;42.614;23.340;2022-12-18T16:02:22;51.47;;;38.63;;
9689;SDS011;4884;42.614;23.340;2022-12-18T16:04:49;38.33;;;28.80;;
9689;SDS011;4884;42.614;23.340;2022-12-18T16:07:15;30.07;;;21.47;;
9689;SDS011;4884;42.614;23.340;2022-12-18T16:09:40;33.60;;;23.17;;
9689;SDS011;4884;42.614;23.340;2022-12-18T16:12:08;38.07;;;26.13;;
9689;SDS011;4884;42.614;23.340;2022-12-18T16:14:40;36.43;;;23.33;;
9689;SDS011;4884;42.614;23.340;2022-12-18T16:17:08;40.10;;;27.60;;
9689;SDS011;4884;42.614;23.340;2022-12-18T16:19:35;41.57;;;25.70;;
9689;SDS011;4884;42.614;23.340;2022-12-18T16:22:00;96.43;;;49.57;;
9689;SDS011;4884;42.614;23.340;2022-12-18T16:24:27;39.60;;;26.33;;
9689;SDS011;4884;42.614;23.340;2022-12-18T16:26:54;27.17;;;17.60;;
9689;SDS011;4884;42.614;23.340;2022-12-18T16:29:20;31.43;;;21.03;;
9689;SDS011;4884;42.614;23.340;2022-12-18T16:31:49;81.30;;;42.00;;
9689;SDS011;4884;42.614;23.340;2022-12-18T16:34:18;32.00;;;19.13;;
9689;SDS011;4884;42.614;23.340;2022-12-18T16:36:49;32.47;;;20.83;;
9689;SDS011;4884;42.614;23.340;2022-12-18T16:39:14;30.53;;;18.23;;
9689;SDS011;4884;42.614;23.340;2022-12-18T16:41:40;36.70;;;31.27;;
9689;SDS011;4884;42.614;23.340;2022-12-18T16:44:05;26.83;;;18.40;;
9689;SDS011;4884;42.614;23.340;2022-12-18T16:46:31;21.00;;;16.03;;
9689;SDS011;4884;42.614;23.340;2022-12-18T16:48:57;21.87;;;15.17;;
9689;SDS011;4884;42.614;23.340;2022-12-18T16:51:23;19.53;;;12.17;;
9689;SDS011;4884;42.614;23.340;2022-12-18T16:53:49;19.93;;;13.23;;